createdAt,value
2023-02-06T00:00:43.909Z,0
2023-02-06T00:01:44.067Z,0
2023-02-06T00:02:47.311Z,0
2023-02-06T00:03:43.899Z,0
2023-02-06T00:04:43.899Z,0
2023-02-06T00:05:44.868Z,0
2023-02-06T00:06:43.971Z,0
2023-02-06T00:07:46.656Z,0
2023-02-06T00:08:43.886Z,0
2023-02-06T00:09:43.908Z,0
2023-02-06T00:10:44.094Z,0
2023-02-06T00:11:43.946Z,0
2023-02-06T00:12:43.899Z,0
2023-02-06T00:13:47.053Z,0
2023-02-06T00:14:43.953Z,0
2023-02-06T00:15:45.539Z,0
2023-02-06T00:16:43.909Z,0
2023-02-06T00:17:43.904Z,0
2023-02-06T00:18:46.998Z,0
2023-02-06T00:19:43.938Z,0
2023-02-06T00:20:43.909Z,0
2023-02-06T00:21:46.944Z,0
2023-02-06T00:22:43.964Z,0
2023-02-06T00:23:43.918Z,0
2023-02-06T00:24:46.765Z,0
2023-02-06T00:25:44.700Z,0
2023-02-06T00:26:43.929Z,0
2023-02-06T00:27:43.994Z,0
2023-02-06T00:28:43.914Z,0
2023-02-06T00:29:45.843Z,0
2023-02-06T00:30:44.156Z,0
2023-02-06T00:31:44.380Z,0
2023-02-06T00:32:45.183Z,0
2023-02-06T00:33:43.962Z,0
2023-02-06T00:34:43.965Z,0
2023-02-06T00:35:47.286Z,0
2023-02-06T00:36:43.962Z,0
2023-02-06T00:37:43.999Z,0
2023-02-06T00:38:43.957Z,0
2023-02-06T00:39:43.960Z,0
2023-02-06T00:40:46.701Z,0
2023-02-06T00:41:46.941Z,0
2023-02-06T00:42:43.973Z,0
2023-02-06T00:43:44.078Z,0
2023-02-06T00:44:44.254Z,0
2023-02-06T00:45:44.935Z,0
2023-02-06T00:46:47.322Z,0
2023-02-06T00:47:44.420Z,0
2023-02-06T00:48:43.997Z,0
2023-02-06T00:49:43.995Z,0
2023-02-06T00:50:43.968Z,0
2023-02-06T00:51:46.826Z,0
2023-02-06T00:52:44.015Z,0
2023-02-06T00:53:43.940Z,0
2023-02-06T00:54:44.028Z,0
2023-02-06T00:55:44.532Z,0
2023-02-06T00:56:43.950Z,0
2023-02-06T00:57:46.785Z,0
2023-02-06T00:58:43.987Z,0
2023-02-06T00:59:44.025Z,0
2023-02-06T01:00:44.025Z,0
2023-02-06T01:01:44.294Z,0
2023-02-06T01:02:47.327Z,0
2023-02-06T01:03:44.052Z,0
2023-02-06T01:04:44.184Z,0
2023-02-06T01:05:44.996Z,0
2023-02-06T01:06:43.989Z,0
2023-02-06T01:07:46.820Z,0
2023-02-06T01:08:47.277Z,0
2023-02-06T01:09:44.022Z,0
2023-02-06T01:10:44.066Z,0
2023-02-06T01:11:43.997Z,0
2023-02-06T01:12:44.014Z,0
2023-02-06T01:13:46.776Z,0
2023-02-06T01:14:43.999Z,0
2023-02-06T01:15:44.702Z,0
2023-02-06T01:16:44.024Z,0
2023-02-06T01:17:44.036Z,0
2023-02-06T01:18:46.847Z,0
2023-02-06T01:19:44.021Z,0
2023-02-06T01:20:44.042Z,0
2023-02-06T01:21:44.000Z,0
2023-02-06T01:22:44.002Z,0
2023-02-06T01:23:44.005Z,0
2023-02-06T01:24:47.598Z,0
2023-02-06T01:25:44.768Z,0
2023-02-06T01:26:44.023Z,0
2023-02-06T01:27:44.068Z,0
2023-02-06T01:28:44.006Z,0
2023-02-06T01:29:46.830Z,0
2023-02-06T01:30:44.356Z,0
2023-02-06T01:31:44.370Z,0
2023-02-06T01:32:44.064Z,0
2023-02-06T01:33:44.123Z,0
2023-02-06T01:34:44.333Z,0
2023-02-06T01:35:44.610Z,0
2023-02-06T01:36:44.040Z,0
2023-02-06T01:37:44.014Z,0
2023-02-06T01:38:44.088Z,0
2023-02-06T01:39:44.037Z,0
2023-02-06T01:40:47.072Z,0
2023-02-06T01:41:44.053Z,0
2023-02-06T01:42:44.079Z,0
2023-02-06T01:43:44.055Z,0
2023-02-06T01:44:44.057Z,0
2023-02-06T01:45:44.891Z,0
2023-02-06T01:46:44.275Z,0
2023-02-06T01:47:44.066Z,0
2023-02-06T01:48:44.049Z,0
2023-02-06T01:49:44.079Z,0
2023-02-06T01:50:44.227Z,0
2023-02-06T01:51:44.080Z,0
2023-02-06T01:52:44.049Z,0
2023-02-06T01:53:44.096Z,0
2023-02-06T01:54:44.108Z,0
2023-02-06T01:55:45.095Z,0
2023-02-06T01:56:46.842Z,0
2023-02-06T01:57:45.073Z,0
2023-02-06T01:58:44.104Z,0
2023-02-06T01:59:44.098Z,0
2023-02-06T02:00:44.426Z,0
2023-02-06T02:01:44.206Z,0
2023-02-06T02:02:44.065Z,0
2023-02-06T02:03:44.126Z,0
2023-02-06T02:04:44.072Z,0
2023-02-06T02:05:44.940Z,0
2023-02-06T02:06:44.112Z,0
2023-02-06T02:07:46.895Z,0
2023-02-06T02:08:44.095Z,0
2023-02-06T02:09:44.103Z,0
2023-02-06T02:10:44.097Z,0
2023-02-06T02:11:44.116Z,0
2023-02-06T02:12:47.105Z,0
2023-02-06T02:13:44.099Z,0
2023-02-06T02:14:44.125Z,0
2023-02-06T02:15:44.613Z,0
2023-02-06T02:16:47.195Z,0
2023-02-06T02:17:44.111Z,0
2023-02-06T02:18:46.942Z,0
2023-02-06T02:19:44.128Z,0
2023-02-06T02:20:44.129Z,0
2023-02-06T02:21:44.135Z,0
2023-02-06T02:22:44.167Z,0
2023-02-06T02:23:46.890Z,0
2023-02-06T02:24:44.105Z,0
2023-02-06T02:25:45.125Z,0
2023-02-06T02:26:44.107Z,0
2023-02-06T02:27:44.134Z,0
2023-02-06T02:28:44.116Z,0
2023-02-06T02:29:49.040Z,0
2023-02-06T02:30:44.435Z,0
2023-02-06T02:31:44.382Z,0
2023-02-06T02:32:44.122Z,0
2023-02-06T02:33:44.140Z,0
2023-02-06T02:34:47.303Z,0
2023-02-06T02:35:45.067Z,0
2023-02-06T02:36:44.151Z,0
2023-02-06T02:37:44.169Z,0
2023-02-06T02:38:44.308Z,0
2023-02-06T02:39:44.130Z,0
2023-02-06T02:40:46.959Z,0
2023-02-06T02:41:44.140Z,0
2023-02-06T02:42:44.150Z,0
2023-02-06T02:43:44.274Z,0
2023-02-06T02:44:44.284Z,0
2023-02-06T02:45:47.802Z,0
2023-02-06T02:46:44.172Z,0
2023-02-06T02:47:44.141Z,0
2023-02-06T02:48:44.133Z,0
2023-02-06T02:49:44.166Z,0
2023-02-06T02:50:44.149Z,0
2023-02-06T02:51:47.131Z,0
2023-02-06T02:52:44.154Z,0
2023-02-06T02:53:44.189Z,0
2023-02-06T02:54:44.186Z,0
2023-02-06T02:55:45.133Z,0
2023-02-06T02:56:46.946Z,0
2023-02-06T02:57:44.145Z,0
2023-02-06T02:58:44.237Z,0
2023-02-06T02:59:44.366Z,0
2023-02-06T03:00:44.353Z,0
2023-02-06T03:01:44.176Z,0
2023-02-06T03:02:47.356Z,0
2023-02-06T03:03:44.163Z,0
2023-02-06T03:04:44.025Z,0
2023-02-06T03:05:44.864Z,0
2023-02-06T03:06:44.255Z,0
2023-02-06T03:07:50.480Z,0
2023-02-06T03:08:44.145Z,0
2023-02-06T03:09:46.163Z,0
2023-02-06T03:10:44.318Z,0
2023-02-06T03:11:44.180Z,0
2023-02-06T03:12:44.217Z,0
2023-02-06T03:13:47.258Z,0
2023-02-06T03:14:44.192Z,0
2023-02-06T03:15:45.027Z,0
2023-02-06T03:16:44.498Z,0
2023-02-06T03:17:44.205Z,0
2023-02-06T03:18:47.307Z,0
2023-02-06T03:19:46.912Z,0
2023-02-06T03:20:44.210Z,0
2023-02-06T03:21:44.180Z,0
2023-02-06T03:22:44.243Z,0
2023-02-06T03:23:49.841Z,0
2023-02-06T03:24:46.948Z,0
2023-02-06T03:25:44.939Z,0
2023-02-06T03:26:44.275Z,0
2023-02-06T03:27:47.304Z,0
2023-02-06T03:28:44.208Z,0
2023-02-06T03:29:46.938Z,0
2023-02-06T03:30:44.480Z,0
2023-02-06T03:31:44.470Z,0
2023-02-06T03:32:44.197Z,0
2023-02-06T03:33:44.304Z,0
2023-02-06T03:34:47.040Z,0
2023-02-06T03:35:48.112Z,0
2023-02-06T03:36:44.213Z,0
2023-02-06T03:37:44.253Z,0
2023-02-06T03:38:44.197Z,0
2023-02-06T03:39:44.244Z,0
2023-02-06T03:40:47.412Z,0
2023-02-06T03:41:44.225Z,0
2023-02-06T03:42:44.434Z,0
2023-02-06T03:43:44.222Z,0
2023-02-06T03:44:44.243Z,0
2023-02-06T03:45:48.152Z,0
2023-02-06T03:46:44.255Z,0
2023-02-06T03:47:44.215Z,0
2023-02-06T03:48:44.296Z,0
2023-02-06T03:49:44.298Z,0
2023-02-06T03:50:44.285Z,0
2023-02-06T03:51:47.370Z,0
2023-02-06T03:52:44.249Z,0
2023-02-06T03:53:44.312Z,0
2023-02-06T03:54:44.227Z,0
2023-02-06T03:55:45.004Z,0
2023-02-06T03:56:47.117Z,0
2023-02-06T03:57:44.215Z,0
2023-02-06T03:58:44.359Z,0
2023-02-06T03:59:44.250Z,0
2023-02-06T04:00:44.357Z,0
2023-02-06T04:01:44.376Z,0
2023-02-06T04:02:44.457Z,0
2023-02-06T04:03:44.324Z,0
2023-02-06T04:04:44.249Z,0
2023-02-06T04:05:46.166Z,0
2023-02-06T04:06:44.270Z,0
2023-02-06T04:07:47.130Z,0
2023-02-06T04:08:44.269Z,0
2023-02-06T04:09:44.303Z,0
2023-02-06T04:10:44.309Z,0
2023-02-06T04:11:44.300Z,0
2023-02-06T04:12:44.324Z,0
2023-02-06T04:13:44.281Z,0
2023-02-06T04:14:44.301Z,0
2023-02-06T04:15:45.045Z,0
2023-02-06T04:16:44.558Z,0
2023-02-06T04:18:09.044Z,0
2023-02-06T04:18:47.113Z,0
2023-02-06T04:19:44.273Z,0
2023-02-06T04:20:47.032Z,0
2023-02-06T04:21:44.303Z,0
2023-02-06T04:22:44.253Z,0
2023-02-06T04:23:47.240Z,0
2023-02-06T04:24:44.288Z,0
2023-02-06T04:25:45.290Z,0
2023-02-06T04:26:44.367Z,0
2023-02-06T04:27:44.442Z,0
2023-02-06T04:28:44.329Z,0
2023-02-06T04:29:44.320Z,0
2023-02-06T04:30:44.924Z,0
2023-02-06T04:31:44.559Z,0
2023-02-06T04:32:44.351Z,0
2023-02-06T04:33:44.299Z,0
2023-02-06T04:34:47.089Z,0
2023-02-06T04:35:45.097Z,0
2023-02-06T04:36:44.389Z,0
2023-02-06T04:37:44.315Z,0
2023-02-06T04:38:45.355Z,0
2023-02-06T04:39:47.235Z,0
2023-02-06T04:40:50.154Z,0
2023-02-06T04:41:44.333Z,0
2023-02-06T04:42:44.341Z,0
2023-02-06T04:43:44.409Z,0
2023-02-06T04:44:44.353Z,0
2023-02-06T04:45:48.444Z,0
2023-02-06T04:46:44.340Z,0
2023-02-06T04:47:44.336Z,0
2023-02-06T04:48:44.440Z,0
2023-02-06T04:49:44.333Z,0
2023-02-06T04:50:47.399Z,0
2023-02-06T04:51:44.361Z,0
2023-02-06T04:52:44.401Z,0
2023-02-06T04:53:44.354Z,0
2023-02-06T04:54:44.348Z,0
2023-02-06T04:55:44.983Z,0
2023-02-06T04:56:47.254Z,0
2023-02-06T04:57:44.457Z,0
2023-02-06T04:58:44.341Z,0
2023-02-06T04:59:44.386Z,0
2023-02-06T05:00:46.145Z,0
2023-02-06T05:01:47.811Z,0
2023-02-06T05:02:44.851Z,0
2023-02-06T05:03:44.397Z,0
2023-02-06T05:04:44.357Z,0
2023-02-06T05:05:44.774Z,0
2023-02-06T05:06:44.390Z,0
2023-02-06T05:07:47.416Z,0
2023-02-06T05:08:44.361Z,0
2023-02-06T05:09:44.352Z,0
2023-02-06T05:10:44.352Z,0
2023-02-06T05:11:44.406Z,0
2023-02-06T05:12:47.209Z,0
2023-02-06T05:13:44.433Z,0
2023-02-06T05:14:44.367Z,0
2023-02-06T05:15:45.706Z,0
2023-02-06T05:16:44.411Z,0
2023-02-06T05:17:44.432Z,0
2023-02-06T05:18:44.581Z,0
2023-02-06T05:19:44.607Z,0
2023-02-06T05:20:44.406Z,0
2023-02-06T05:21:44.367Z,0
2023-02-06T05:22:44.395Z,0
2023-02-06T05:23:47.446Z,0
2023-02-06T05:24:44.362Z,0
2023-02-06T05:25:46.878Z,0
2023-02-06T05:26:44.623Z,0
2023-02-06T05:27:44.383Z,0
2023-02-06T05:28:44.959Z,0
2023-02-06T05:29:47.158Z,0
2023-02-06T05:30:47.377Z,0
2023-02-06T05:31:45.110Z,0
2023-02-06T05:32:44.419Z,0
2023-02-06T05:33:44.440Z,0
2023-02-06T05:34:47.399Z,0
2023-02-06T05:35:45.019Z,0
2023-02-06T05:36:44.419Z,0
2023-02-06T05:37:44.447Z,0
2023-02-06T05:38:44.440Z,0
2023-02-06T05:39:44.446Z,0
2023-02-06T05:40:47.230Z,0
2023-02-06T05:41:44.444Z,0
2023-02-06T05:42:45.635Z,0
2023-02-06T05:43:44.401Z,0
2023-02-06T05:44:44.401Z,0
2023-02-06T05:45:48.467Z,0
2023-02-06T05:46:44.721Z,0
2023-02-06T05:47:44.481Z,0
2023-02-06T05:48:44.448Z,0
2023-02-06T05:49:44.524Z,0
2023-02-06T05:50:45.637Z,0
2023-02-06T05:51:47.293Z,0
2023-02-06T05:52:44.438Z,0
2023-02-06T05:53:44.490Z,0
2023-02-06T05:54:44.420Z,0
2023-02-06T05:55:45.131Z,0
2023-02-06T05:56:47.552Z,0
2023-02-06T05:57:44.434Z,0
2023-02-06T05:58:44.309Z,0
2023-02-06T05:59:44.420Z,0
2023-02-06T06:00:44.429Z,0
2023-02-06T06:01:45.296Z,0
2023-02-06T06:02:47.230Z,0
2023-02-06T06:03:44.679Z,0
2023-02-06T06:04:44.741Z,0
2023-02-06T06:05:45.394Z,0
2023-02-06T06:06:44.539Z,0
2023-02-06T06:07:47.200Z,0
2023-02-06T06:08:44.461Z,0
2023-02-06T06:09:45.545Z,0
2023-02-06T06:10:44.459Z,0
2023-02-06T06:11:44.606Z,0
2023-02-06T06:12:47.601Z,0
2023-02-06T06:13:44.465Z,0
2023-02-06T06:14:44.448Z,0
2023-02-06T06:15:45.282Z,0
2023-02-06T06:16:44.634Z,0
2023-02-06T06:17:44.455Z,0
2023-02-06T06:18:47.464Z,0
2023-02-06T06:19:44.536Z,0
2023-02-06T06:20:44.505Z,0
2023-02-06T06:21:44.554Z,0
2023-02-06T06:22:44.674Z,0
2023-02-06T06:23:47.488Z,0
2023-02-06T06:24:44.446Z,0
2023-02-06T06:25:44.877Z,0
2023-02-06T06:26:44.549Z,0
2023-02-06T06:27:44.544Z,0
2023-02-06T06:28:44.465Z,0
2023-02-06T06:29:44.503Z,0
2023-02-06T06:30:45.311Z,0
2023-02-06T06:31:44.559Z,0
2023-02-06T06:32:44.513Z,0
2023-02-06T06:33:44.522Z,0
2023-02-06T06:34:47.371Z,0
2023-02-06T06:35:45.268Z,0
2023-02-06T06:36:44.558Z,0
2023-02-06T06:37:44.597Z,0
2023-02-06T06:38:44.512Z,0
2023-02-06T06:39:44.498Z,0
2023-02-06T06:40:44.524Z,0
2023-02-06T06:41:44.533Z,0
2023-02-06T06:42:44.792Z,0
2023-02-06T06:43:44.622Z,0
2023-02-06T06:44:44.505Z,0
2023-02-06T06:45:48.840Z,0
2023-02-06T06:46:44.507Z,0
2023-02-06T06:47:44.528Z,0
2023-02-06T06:48:44.552Z,0
2023-02-06T06:49:44.534Z,0
2023-02-06T06:50:47.588Z,0
2023-02-06T06:51:44.635Z,0
2023-02-06T06:52:44.591Z,0
2023-02-06T06:53:45.064Z,0
2023-02-06T06:54:44.534Z,0
2023-02-06T06:55:45.218Z,0
2023-02-06T06:56:44.529Z,0
2023-02-06T06:57:44.562Z,0
2023-02-06T06:58:44.536Z,0
2023-02-06T06:59:44.632Z,0
2023-02-06T07:00:45.759Z,0
2023-02-06T07:01:47.367Z,0
2023-02-06T07:02:44.875Z,0
2023-02-06T07:03:44.584Z,0
2023-02-06T07:04:44.578Z,0
2023-02-06T07:05:45.323Z,0
2023-02-06T07:06:47.568Z,0
2023-02-06T07:07:44.851Z,0
2023-02-06T07:08:44.579Z,0
2023-02-06T07:09:44.771Z,0
2023-02-06T07:10:44.587Z,0
2023-02-06T07:11:45.434Z,0
2023-02-06T07:12:47.651Z,0
2023-02-06T07:13:44.566Z,0
2023-02-06T07:14:44.591Z,0
2023-02-06T07:15:45.322Z,0
2023-02-06T07:16:44.964Z,0
2023-02-06T07:17:47.654Z,0
2023-02-06T07:18:44.576Z,0
2023-02-06T07:19:44.591Z,0
2023-02-06T07:20:44.589Z,0
2023-02-06T07:21:44.627Z,0
2023-02-06T07:22:44.587Z,0
2023-02-06T07:23:47.510Z,0
2023-02-06T07:24:44.461Z,0
2023-02-06T07:25:45.450Z,0
2023-02-06T07:26:44.674Z,0
2023-02-06T07:27:44.597Z,0
2023-02-06T07:28:47.455Z,0
2023-02-06T07:29:44.593Z,0
2023-02-06T07:30:44.821Z,0
2023-02-06T07:31:44.825Z,0
2023-02-06T07:32:44.611Z,0
2023-02-06T07:33:44.654Z,0
2023-02-06T07:34:47.423Z,0
2023-02-06T07:35:45.407Z,0
2023-02-06T07:36:44.624Z,0
2023-02-06T07:37:44.438Z,0
2023-02-06T07:38:44.599Z,0
2023-02-06T07:39:47.429Z,0
2023-02-06T07:40:57.373Z,0
2023-02-06T07:41:44.645Z,0
2023-02-06T07:42:44.629Z,0
2023-02-06T07:43:44.598Z,0
2023-02-06T07:44:44.657Z,0
2023-02-06T07:45:49.014Z,0
2023-02-06T07:46:44.623Z,0
2023-02-06T07:47:44.678Z,0
2023-02-06T07:48:44.611Z,0
2023-02-06T07:49:44.619Z,0
2023-02-06T07:50:47.669Z,0
2023-02-06T07:51:44.602Z,0
2023-02-06T07:52:44.608Z,0
2023-02-06T07:53:44.609Z,0
2023-02-06T07:54:44.611Z,0
2023-02-06T07:55:45.626Z,0
2023-02-06T07:56:48.530Z,0
2023-02-06T07:57:44.628Z,0
2023-02-06T07:58:44.613Z,0
2023-02-06T07:59:47.702Z,0
2023-02-06T08:00:45.985Z,0
2023-02-06T08:01:47.783Z,0
2023-02-06T08:02:44.622Z,0
2023-02-06T08:03:44.671Z,0
2023-02-06T08:04:44.962Z,0
2023-02-06T08:05:45.504Z,0
2023-02-06T08:06:44.680Z,0
2023-02-06T08:07:47.452Z,0
2023-02-06T08:08:44.656Z,0
2023-02-06T08:09:44.755Z,0
2023-02-06T08:10:44.658Z,0
2023-02-06T08:11:44.711Z,0
2023-02-06T08:12:47.570Z,0
2023-02-06T08:13:44.686Z,0
2023-02-06T08:14:44.659Z,0
2023-02-06T08:15:45.440Z,0
2023-02-06T08:16:44.969Z,0
2023-02-06T08:17:45.742Z,0
2023-02-06T08:18:47.755Z,0
2023-02-06T08:19:44.743Z,0
2023-02-06T08:20:44.700Z,0
2023-02-06T08:21:44.660Z,0
2023-02-06T08:22:44.690Z,0
2023-02-06T08:23:47.902Z,0
2023-02-06T08:24:44.685Z,0
2023-02-06T08:25:45.724Z,0
2023-02-06T08:26:44.705Z,0
2023-02-06T08:27:44.884Z,0
2023-02-06T08:28:46.949Z,0
2023-02-06T08:29:47.689Z,0
2023-02-06T08:30:45.186Z,0
2023-02-06T08:31:45.451Z,0
2023-02-06T08:32:44.708Z,0
2023-02-06T08:33:44.697Z,0
2023-02-06T08:34:47.569Z,0
2023-02-06T08:35:45.087Z,0
2023-02-06T08:36:46.664Z,0
2023-02-06T08:37:44.722Z,0
2023-02-06T08:38:44.679Z,0
2023-02-06T08:39:47.776Z,5
2023-02-06T08:40:44.680Z,5
2023-02-06T08:41:44.725Z,5
2023-02-06T08:42:44.716Z,5
2023-02-06T08:43:44.807Z,5
2023-02-06T08:44:44.859Z,10
2023-02-06T08:45:48.389Z,10
2023-02-06T08:46:44.708Z,10
2023-02-06T08:47:44.733Z,15
2023-02-06T08:48:44.893Z,15
2023-02-06T08:49:44.708Z,15
2023-02-06T08:50:51.825Z,20
2023-02-06T08:51:44.806Z,70
2023-02-06T08:52:44.718Z,35
2023-02-06T08:53:44.699Z,15
2023-02-06T08:54:47.866Z,15
2023-02-06T08:55:45.695Z,20
2023-02-06T08:56:44.732Z,20
2023-02-06T08:57:44.741Z,15
2023-02-06T08:58:44.726Z,15
2023-02-06T08:59:44.772Z,15
2023-02-06T09:00:44.815Z,20
2023-02-06T09:01:51.041Z,20
2023-02-06T09:02:45.095Z,15
2023-02-06T09:03:44.724Z,15
2023-02-06T09:04:44.757Z,15
2023-02-06T09:05:45.306Z,15
2023-02-06T09:06:44.762Z,10
2023-02-06T09:07:44.826Z,10
2023-02-06T09:08:44.760Z,10
2023-02-06T09:09:44.783Z,10
2023-02-06T09:10:44.829Z,10
2023-02-06T09:11:44.749Z,10
2023-02-06T09:12:44.798Z,10
2023-02-06T09:13:44.764Z,10
2023-02-06T09:14:44.749Z,10
2023-02-06T09:15:46.309Z,10
2023-02-06T09:16:44.816Z,10
2023-02-06T09:17:47.615Z,10
2023-02-06T09:18:44.778Z,10
2023-02-06T09:19:44.739Z,10
2023-02-06T09:20:44.749Z,10
2023-02-06T09:21:44.845Z,10
2023-02-06T09:22:44.852Z,10
2023-02-06T09:23:44.994Z,10
2023-02-06T09:24:44.811Z,10
2023-02-06T09:25:45.670Z,10
2023-02-06T09:27:05.570Z,15
2023-02-06T09:27:44.774Z,15
2023-02-06T09:28:47.853Z,15
2023-02-06T09:29:44.757Z,20
2023-02-06T09:30:44.968Z,20
2023-02-06T09:31:45.219Z,15
2023-02-06T09:32:44.887Z,15
2023-02-06T09:33:48.079Z,10
2023-02-06T09:34:44.764Z,10
2023-02-06T09:35:45.767Z,15
2023-02-06T09:36:44.785Z,15
2023-02-06T09:37:44.807Z,15
2023-02-06T09:38:44.851Z,20
2023-02-06T09:39:47.856Z,20
2023-02-06T09:40:45.004Z,20
2023-02-06T09:41:44.780Z,25
2023-02-06T09:42:44.806Z,20
2023-02-06T09:43:44.789Z,20
2023-02-06T09:44:47.791Z,15
2023-02-06T09:45:45.570Z,15
2023-02-06T09:46:47.826Z,10
2023-02-06T09:47:47.262Z,10
2023-02-06T09:48:44.869Z,10
2023-02-06T09:49:44.801Z,10
2023-02-06T09:50:47.615Z,10
2023-02-06T09:51:44.865Z,10
2023-02-06T09:52:44.861Z,10
2023-02-06T09:53:44.783Z,5
2023-02-06T09:54:44.825Z,5
2023-02-06T09:55:52.662Z,5
2023-02-06T09:56:44.976Z,5
2023-02-06T09:57:44.823Z,10
2023-02-06T09:58:44.841Z,10
2023-02-06T09:59:44.821Z,10
2023-02-06T10:00:44.873Z,10
2023-02-06T10:01:48.139Z,5
2023-02-06T10:02:45.117Z,10
2023-02-06T10:03:45.033Z,10
2023-02-06T10:04:45.021Z,10
2023-02-06T10:05:45.663Z,10
2023-02-06T10:06:47.998Z,10
2023-02-06T10:07:44.837Z,10
2023-02-06T10:08:44.899Z,10
2023-02-06T10:09:44.835Z,10
2023-02-06T10:10:44.810Z,10
2023-02-06T10:11:44.933Z,10
2023-02-06T10:12:47.913Z,10
2023-02-06T10:13:44.820Z,10
2023-02-06T10:14:44.830Z,10
2023-02-06T10:15:45.708Z,15
2023-02-06T10:16:44.846Z,15
2023-02-06T10:17:47.686Z,15
2023-02-06T10:18:44.843Z,15
2023-02-06T10:19:44.864Z,10
2023-02-06T10:20:44.944Z,15
2023-02-06T10:21:44.846Z,15
2023-02-06T10:22:45.883Z,15
2023-02-06T10:23:47.775Z,15
2023-02-06T10:24:44.871Z,15
2023-02-06T10:25:45.667Z,15
2023-02-06T10:26:44.890Z,15
2023-02-06T10:27:44.982Z,15
2023-02-06T10:28:47.692Z,15
2023-02-06T10:29:44.946Z,15
2023-02-06T10:30:44.971Z,15
2023-02-06T10:31:45.314Z,15
2023-02-06T10:32:44.910Z,15
2023-02-06T10:33:44.902Z,20
2023-02-06T10:34:47.737Z,20
2023-02-06T10:35:45.898Z,20
2023-02-06T10:36:47.492Z,20
2023-02-06T10:37:44.923Z,20
2023-02-06T10:38:44.906Z,20
2023-02-06T10:39:47.654Z,20
2023-02-06T10:40:44.871Z,20
2023-02-06T10:41:44.891Z,20
2023-02-06T10:42:44.998Z,20
2023-02-06T10:43:44.944Z,20
2023-02-06T10:44:54.036Z,20
2023-02-06T10:45:48.944Z,20
2023-02-06T10:46:45.447Z,20
2023-02-06T10:47:44.918Z,20
2023-02-06T10:48:44.955Z,20
2023-02-06T10:49:45.076Z,20
2023-02-06T10:50:47.770Z,25
2023-02-06T10:51:45.017Z,30
2023-02-06T10:52:45.174Z,30
2023-02-06T10:53:44.906Z,35
2023-02-06T10:54:44.882Z,30
2023-02-06T10:55:49.074Z,30
2023-02-06T10:56:47.962Z,25
2023-02-06T10:57:44.924Z,25
2023-02-06T10:58:44.934Z,20
2023-02-06T10:59:44.930Z,20
2023-02-06T11:00:45.932Z,25
2023-02-06T11:01:48.644Z,20
2023-02-06T11:02:46.319Z,20
2023-02-06T11:03:46.690Z,20
2023-02-06T11:04:44.963Z,20
2023-02-06T11:05:46.378Z,20
2023-02-06T11:06:47.856Z,20
2023-02-06T11:07:44.959Z,20
2023-02-06T11:08:45.072Z,20
2023-02-06T11:09:44.957Z,20
2023-02-06T11:10:46.118Z,20
2023-02-06T11:11:46.666Z,20
2023-02-06T11:12:48.037Z,20
2023-02-06T11:13:45.089Z,20
2023-02-06T11:14:44.941Z,20
2023-02-06T11:15:45.715Z,20
2023-02-06T11:16:45.398Z,20
2023-02-06T11:17:46.479Z,20
2023-02-06T11:18:44.957Z,20
2023-02-06T11:19:45.006Z,20
2023-02-06T11:20:45.854Z,20
2023-02-06T11:21:45.109Z,20
2023-02-06T11:23:00.829Z,20
2023-02-06T11:23:45.024Z,15
2023-02-06T11:24:45.152Z,15
2023-02-06T11:25:45.926Z,15
2023-02-06T11:26:44.977Z,15
2023-02-06T11:27:46.709Z,15
2023-02-06T11:28:48.005Z,15
2023-02-06T11:29:44.959Z,10
2023-02-06T11:30:46.127Z,10
2023-02-06T11:31:45.637Z,10
2023-02-06T11:33:03.593Z,10
2023-02-06T11:33:44.995Z,10
2023-02-06T11:34:44.991Z,10
2023-02-06T11:35:46.064Z,10
2023-02-06T11:36:44.982Z,10
2023-02-06T11:37:45.136Z,10
2023-02-06T11:38:45.050Z,10
2023-02-06T11:39:47.742Z,10
2023-02-06T11:40:45.945Z,10
2023-02-06T11:41:44.998Z,10
2023-02-06T11:42:45.237Z,10
2023-02-06T11:43:46.330Z,10
2023-02-06T11:44:48.057Z,10
2023-02-06T11:45:46.264Z,5
2023-02-06T11:46:45.014Z,5
2023-02-06T11:47:47.083Z,5
2023-02-06T11:48:47.964Z,5
2023-02-06T11:49:45.009Z,10
2023-02-06T11:50:48.509Z,10
2023-02-06T11:51:45.007Z,10
2023-02-06T11:52:46.719Z,10
2023-02-06T11:53:45.020Z,10
2023-02-06T11:54:48.060Z,10
2023-02-06T11:55:49.324Z,10
2023-02-06T11:56:44.993Z,10
2023-02-06T11:57:44.994Z,10
2023-02-06T11:58:45.114Z,5
2023-02-06T11:59:45.053Z,5
2023-02-06T12:00:47.803Z,5
2023-02-06T12:01:45.129Z,5
2023-02-06T12:02:45.272Z,5
2023-02-06T12:03:45.441Z,5
2023-02-06T12:04:45.081Z,5
2023-02-06T12:05:46.004Z,10
2023-02-06T12:06:47.884Z,10
2023-02-06T12:07:45.022Z,10
2023-02-06T12:08:45.050Z,10
2023-02-06T12:09:45.070Z,10
2023-02-06T12:10:45.059Z,10
2023-02-06T12:11:48.241Z,10
2023-02-06T12:12:45.060Z,10
2023-02-06T12:13:45.041Z,10
2023-02-06T12:14:45.078Z,10
2023-02-06T12:15:57.119Z,10
2023-02-06T12:16:45.397Z,10
2023-02-06T12:17:47.874Z,10
2023-02-06T12:18:45.064Z,10
2023-02-06T12:19:45.042Z,10
2023-02-06T12:20:45.047Z,10
2023-02-06T12:21:45.270Z,10
2023-02-06T12:22:47.919Z,10
2023-02-06T12:23:45.084Z,10
2023-02-06T12:24:45.126Z,10
2023-02-06T12:25:45.971Z,10
2023-02-06T12:26:45.083Z,10
2023-02-06T12:27:47.686Z,15
2023-02-06T12:28:48.993Z,15
2023-02-06T12:29:45.052Z,10
2023-02-06T12:30:47.092Z,15
2023-02-06T12:31:45.983Z,15
2023-02-06T12:32:45.062Z,15
2023-02-06T12:33:48.099Z,15
2023-02-06T12:34:45.068Z,15
2023-02-06T12:35:45.880Z,15
2023-02-06T12:36:45.070Z,20
2023-02-06T12:37:45.079Z,20
2023-02-06T12:38:45.098Z,20
2023-02-06T12:39:47.970Z,20
2023-02-06T12:40:45.133Z,20
2023-02-06T12:41:45.364Z,20
2023-02-06T12:42:45.250Z,20
2023-02-06T12:43:45.218Z,15
2023-02-06T12:44:48.186Z,15
2023-02-06T12:45:45.865Z,15
2023-02-06T12:46:45.187Z,15
2023-02-06T12:47:45.124Z,10
2023-02-06T12:48:45.082Z,10
2023-02-06T12:49:45.088Z,10
2023-02-06T12:50:48.192Z,10
2023-02-06T12:51:45.139Z,10
2023-02-06T12:52:45.093Z,10
2023-02-06T12:53:45.236Z,10
2023-02-06T12:54:45.096Z,10
2023-02-06T12:55:51.360Z,10
2023-02-06T12:56:45.115Z,10
2023-02-06T12:57:45.143Z,10
2023-02-06T12:58:45.148Z,10
2023-02-06T13:00:03.671Z,10
2023-02-06T13:00:45.081Z,10
2023-02-06T13:01:48.590Z,10
2023-02-06T13:02:45.551Z,10
2023-02-06T13:03:45.154Z,10
2023-02-06T13:04:45.121Z,10
2023-02-06T13:05:46.206Z,10
2023-02-06T13:06:48.246Z,10
2023-02-06T13:07:59.858Z,10
2023-02-06T13:08:45.165Z,10
2023-02-06T13:09:48.352Z,10
2023-02-06T13:10:45.872Z,10
2023-02-06T13:11:45.273Z,10
2023-02-06T13:12:47.950Z,10
2023-02-06T13:13:45.145Z,10
2023-02-06T13:14:46.976Z,10
2023-02-06T13:15:46.337Z,10
2023-02-06T13:16:45.168Z,10
2023-02-06T13:17:54.049Z,5
2023-02-06T13:18:45.130Z,5
2023-02-06T13:19:45.243Z,5
2023-02-06T13:20:45.184Z,5
2023-02-06T13:21:45.161Z,5
2023-02-06T13:22:45.212Z,5
2023-02-06T13:23:48.078Z,5
2023-02-06T13:24:45.162Z,5
2023-02-06T13:25:45.879Z,5
2023-02-06T13:26:45.134Z,5
2023-02-06T13:27:48.401Z,5
2023-02-06T13:28:48.100Z,5
2023-02-06T13:29:45.128Z,5
2023-02-06T13:30:45.529Z,5
2023-02-06T13:31:45.475Z,5
2023-02-06T13:32:47.708Z,5
2023-02-06T13:33:45.565Z,10
2023-02-06T13:34:45.200Z,10
2023-02-06T13:35:45.927Z,5
2023-02-06T13:36:45.326Z,5
2023-02-06T13:37:47.304Z,5
2023-02-06T13:38:45.237Z,5
2023-02-06T13:39:48.046Z,5
2023-02-06T13:40:45.177Z,5
2023-02-06T13:41:46.197Z,5
2023-02-06T13:42:45.242Z,5
2023-02-06T13:43:45.225Z,5
2023-02-06T13:44:48.390Z,5
2023-02-06T13:45:45.892Z,5
2023-02-06T13:46:45.370Z,5
2023-02-06T13:47:45.213Z,5
2023-02-06T13:48:47.868Z,5
2023-02-06T13:49:45.189Z,5
2023-02-06T13:50:45.178Z,5
2023-02-06T13:51:45.202Z,5
2023-02-06T13:52:45.189Z,5
2023-02-06T13:53:45.232Z,5
2023-02-06T13:54:45.244Z,5
2023-02-06T13:55:48.885Z,5
2023-02-06T13:56:45.235Z,5
2023-02-06T13:57:45.182Z,5
2023-02-06T13:58:45.245Z,5
2023-02-06T13:59:45.227Z,5
2023-02-06T14:00:45.257Z,5
2023-02-06T14:01:45.686Z,5
2023-02-06T14:02:45.473Z,5
2023-02-06T14:03:45.275Z,5
2023-02-06T14:04:45.250Z,5
2023-02-06T14:05:45.758Z,5
2023-02-06T14:06:48.107Z,5
2023-02-06T14:07:45.231Z,5
2023-02-06T14:08:45.238Z,5
2023-02-06T14:09:48.516Z,5
2023-02-06T14:10:45.263Z,5
2023-02-06T14:11:48.078Z,5
2023-02-06T14:12:45.273Z,5
2023-02-06T14:13:45.308Z,5
2023-02-06T14:14:45.204Z,5
2023-02-06T14:15:46.308Z,5
2023-02-06T14:16:45.297Z,5
2023-02-06T14:17:48.019Z,5
2023-02-06T14:18:45.307Z,5
2023-02-06T14:19:45.338Z,5
2023-02-06T14:20:45.323Z,5
2023-02-06T14:21:45.221Z,5
2023-02-06T14:22:48.290Z,5
2023-02-06T14:23:47.696Z,5
2023-02-06T14:24:45.221Z,5
2023-02-06T14:25:46.007Z,5
2023-02-06T14:26:45.268Z,5
2023-02-06T14:27:48.291Z,5
2023-02-06T14:28:45.474Z,5
2023-02-06T14:29:45.250Z,5
2023-02-06T14:30:45.403Z,5
2023-02-06T14:31:48.508Z,5
2023-02-06T14:32:45.316Z,5
2023-02-06T14:33:45.546Z,5
2023-02-06T14:34:45.320Z,5
2023-02-06T14:35:46.393Z,5
2023-02-06T14:36:45.267Z,5
2023-02-06T14:37:45.255Z,5